North Uniontown, Ohio
Current Conditions -  °F | °C
As of 10:54 AM on Friday 24 Oct 2014 (Local Time) from KILN Reporting Station
Clear Clear  
Wind Chill: 56°   Ceiling: Unl
Heat Index: 56°   Visibility: 10mi
Dew Point: 43°   Wind: 3mph
Humidity: 62%   Direction: 240°WSW
Pressure: 30.12"   Gusts: NA
Location:  39.1546°N, 83.569°W
Report Text: KILN 241454Z AUTO 24003KT 10SM CLR 13/06 A3012 RMK AO2 SLP209 T01330061 50001
Loading
Personal Weather Stations






























Interactive Weather Map
Tropical Storm Tracking
New forecast layout! Learn more

10-Day Weather Forecast

Advertisements
Track Severe Weather on mobile